sensor_id;sensor_type;location;lat;lon;timestamp;temperature;humidity
12053;DHT22;6087;48.982;12.064;2023-03-13T00:01:45;4.80;99.90
12053;DHT22;6087;48.982;12.064;2023-03-13T00:04:13;4.90;99.90
12053;DHT22;6087;48.982;12.064;2023-03-13T00:06:40;4.90;99.90
12053;DHT22;6087;48.982;12.064;2023-03-13T00:09:08;5.00;99.90
12053;DHT22;6087;48.982;12.064;2023-03-13T00:11:37;5.00;99.90
12053;DHT22;6087;48.982;12.064;2023-03-13T00:14:06;5.00;99.90
12053;DHT22;6087;48.982;12.064;2023-03-13T00:16:33;5.00;99.90
12053;DHT22;6087;48.982;12.064;2023-03-13T00:19:03;5.00;99.90
12053;DHT22;6087;48.982;12.064;2023-03-13T00:21:30;4.90;99.90
12053;DHT22;6087;48.982;12.064;2023-03-13T00:23:58;4.90;99.90
12053;DHT22;6087;48.982;12.064;2023-03-13T00:26:26;4.90;99.90
12053;DHT22;6087;48.982;12.064;2023-03-13T00:28:55;4.90;99.90
12053;DHT22;6087;48.982;12.064;2023-03-13T00:31:24;4.80;99.90
12053;DHT22;6087;48.982;12.064;2023-03-13T00:33:52;4.80;99.90
12053;DHT22;6087;48.982;12.064;2023-03-13T00:36:21;4.80;99.90
12053;DHT22;6087;48.982;12.064;2023-03-13T00:38:49;4.70;99.90
12053;DHT22;6087;48.982;12.064;2023-03-13T00:41:18;4.70;99.90
12053;DHT22;6087;48.982;12.064;2023-03-13T00:43:46;4.70;99.90
12053;DHT22;6087;48.982;12.064;2023-03-13T00:46:17;4.70;99.90
12053;DHT22;6087;48.982;12.064;2023-03-13T00:48:44;4.70;99.90
12053;DHT22;6087;48.982;12.064;2023-03-13T00:51:12;4.70;99.90
12053;DHT22;6087;48.982;12.064;2023-03-13T00:53:39;4.70;99.90
12053;DHT22;6087;48.982;12.064;2023-03-13T00:56:08;4.70;99.90
12053;DHT22;6087;48.982;12.064;2023-03-13T00:58:37;4.70;99.90
12053;DHT22;6087;48.982;12.064;2023-03-13T01:01:08;4.70;99.90
12053;DHT22;6087;48.982;12.064;2023-03-13T01:03:37;4.70;99.90
12053;DHT22;6087;48.982;12.064;2023-03-13T01:06:06;4.60;99.90
12053;DHT22;6087;48.982;12.064;2023-03-13T01:08:34;4.60;99.90
12053;DHT22;6087;48.982;12.064;2023-03-13T01:11:02;4.60;99.90
12053;DHT22;6087;48.982;12.064;2023-03-13T01:13:30;4.60;99.90
12053;DHT22;6087;48.982;12.064;2023-03-13T01:16:01;4.60;99.90
12053;DHT22;6087;48.982;12.064;2023-03-13T01:18:28;4.60;99.90
12053;DHT22;6087;48.982;12.064;2023-03-13T01:20:57;4.60;99.90
12053;DHT22;6087;48.982;12.064;2023-03-13T01:23:25;4.50;99.90
12053;DHT22;6087;48.982;12.064;2023-03-13T01:25:53;4.50;99.90
12053;DHT22;6087;48.982;12.064;2023-03-13T01:28:20;4.50;99.90
12053;DHT22;6087;48.982;12.064;2023-03-13T01:30:48;4.50;99.90
12053;DHT22;6087;48.982;12.064;2023-03-13T01:33:15;4.50;99.90
12053;DHT22;6087;48.982;12.064;2023-03-13T01:35:42;4.50;99.90
12053;DHT22;6087;48.982;12.064;2023-03-13T01:38:11;4.50;99.90
12053;DHT22;6087;48.982;12.064;2023-03-13T01:40:39;4.50;99.90
12053;DHT22;6087;48.982;12.064;2023-03-13T01:43:17;4.60;99.90
12053;DHT22;6087;48.982;12.064;2023-03-13T01:45:57;4.60;99.90
12053;DHT22;6087;48.982;12.064;2023-03-13T01:48:33;4.60;99.90
12053;DHT22;6087;48.982;12.064;2023-03-13T01:51:05;4.60;99.90
12053;DHT22;6087;48.982;12.064;2023-03-13T01:53:37;4.60;99.90
12053;DHT22;6087;48.982;12.064;2023-03-13T01:56:07;4.60;99.90
12053;DHT22;6087;48.982;12.064;2023-03-13T01:58:37;4.60;99.90
12053;DHT22;6087;48.982;12.064;2023-03-13T02:01:05;4.60;99.90
12053;DHT22;6087;48.982;12.064;2023-03-13T02:03:33;4.60;99.90
12053;DHT22;6087;48.982;12.064;2023-03-13T02:06:02;4.60;99.90
12053;DHT22;6087;48.982;12.064;2023-03-13T02:08:33;4.60;99.90
12053;DHT22;6087;48.982;12.064;2023-03-13T02:11:09;4.60;99.90
12053;DHT22;6087;48.982;12.064;2023-03-13T02:13:39;4.60;99.90
12053;DHT22;6087;48.982;12.064;2023-03-13T02:16:07;4.60;99.90
12053;DHT22;6087;48.982;12.064;2023-03-13T02:18:35;4.60;99.90
12053;DHT22;6087;48.982;12.064;2023-03-13T02:21:09;4.60;99.90
12053;DHT22;6087;48.982;12.064;2023-03-13T02:23:42;4.60;99.90
12053;DHT22;6087;48.982;12.064;2023-03-13T02:26:12;4.60;99.90
12053;DHT22;6087;48.982;12.064;2023-03-13T02:28:39;4.60;99.90
12053;DHT22;6087;48.982;12.064;2023-03-13T02:31:07;4.60;99.90
12053;DHT22;6087;48.982;12.064;2023-03-13T02:33:37;4.60;99.90
12053;DHT22;6087;48.982;12.064;2023-03-13T02:36:06;4.60;99.90
12053;DHT22;6087;48.982;12.064;2023-03-13T02:38:37;4.60;99.90
12053;DHT22;6087;48.982;12.064;2023-03-13T02:41:05;4.60;99.90
12053;DHT22;6087;48.982;12.064;2023-03-13T02:43:35;4.60;99.90
12053;DHT22;6087;48.982;12.064;2023-03-13T02:46:06;4.60;99.90
12053;DHT22;6087;48.982;12.064;2023-03-13T02:48:35;4.60;99.90
12053;DHT22;6087;48.982;12.064;2023-03-13T02:51:05;4.60;99.90
12053;DHT22;6087;48.982;12.064;2023-03-13T02:53:34;4.60;99.90
12053;DHT22;6087;48.982;12.064;2023-03-13T02:56:03;4.60;99.90
12053;DHT22;6087;48.982;12.064;2023-03-13T02:58:39;4.50;99.90
12053;DHT22;6087;48.982;12.064;2023-03-13T03:01:06;4.50;99.90
12053;DHT22;6087;48.982;12.064;2023-03-13T03:03:33;4.50;99.90
12053;DHT22;6087;48.982;12.064;2023-03-13T03:06:02;4.50;99.90
12053;DHT22;6087;48.982;12.064;2023-03-13T03:08:29;4.50;99.90
12053;DHT22;6087;48.982;12.064;2023-03-13T03:10:57;4.50;99.90
12053;DHT22;6087;48.982;12.064;2023-03-13T03:13:24;4.50;99.90
12053;DHT22;6087;48.982;12.064;2023-03-13T03:15:52;4.60;99.90
12053;DHT22;6087;48.982;12.064;2023-03-13T03:18:19;4.60;99.90
12053;DHT22;6087;48.982;12.064;2023-03-13T03:20:46;4.60;99.90
12053;DHT22;6087;48.982;12.064;2023-03-13T03:23:13;4.60;99.90
12053;DHT22;6087;48.982;12.064;2023-03-13T03:25:40;4.60;99.90
12053;DHT22;6087;48.982;12.064;2023-03-13T03:28:08;4.60;99.90
12053;DHT22;6087;48.982;12.064;2023-03-13T03:30:35;4.60;99.90
12053;DHT22;6087;48.982;12.064;2023-03-13T03:33:04;4.60;99.90
12053;DHT22;6087;48.982;12.064;2023-03-13T03:35:31;4.60;99.90
12053;DHT22;6087;48.982;12.064;2023-03-13T03:37:58;4.60;99.90
12053;DHT22;6087;48.982;12.064;2023-03-13T03:40:26;4.60;99.90
12053;DHT22;6087;48.982;12.064;2023-03-13T03:42:53;4.60;99.90
12053;DHT22;6087;48.982;12.064;2023-03-13T03:45:20;4.60;99.90
12053;DHT22;6087;48.982;12.064;2023-03-13T03:47:47;4.60;99.90
12053;DHT22;6087;48.982;12.064;2023-03-13T03:50:15;4.60;99.90
12053;DHT22;6087;48.982;12.064;2023-03-13T03:52:42;4.60;99.90
12053;DHT22;6087;48.982;12.064;2023-03-13T03:55:10;4.60;99.90
12053;DHT22;6087;48.982;12.064;2023-03-13T03:57:36;4.60;99.90
12053;DHT22;6087;48.982;12.064;2023-03-13T04:00:04;4.60;99.90
12053;DHT22;6087;48.982;12.064;2023-03-13T04:02:32;4.60;99.90
12053;DHT22;6087;48.982;12.064;2023-03-13T04:04:59;4.60;99.90
12053;DHT22;6087;48.982;12.064;2023-03-13T04:07:28;4.60;99.90
12053;DHT22;6087;48.982;12.064;2023-03-13T04:09:55;4.60;99.90
12053;DHT22;6087;48.982;12.064;2023-03-13T04:12:22;4.60;99.90
12053;DHT22;6087;48.982;12.064;2023-03-13T04:14:49;4.60;99.90
12053;DHT22;6087;48.982;12.064;2023-03-13T04:17:16;4.60;99.90
12053;DHT22;6087;48.982;12.064;2023-03-13T04:19:43;4.60;99.90
12053;DHT22;6087;48.982;12.064;2023-03-13T04:22:10;4.60;99.90
12053;DHT22;6087;48.982;12.064;2023-03-13T04:24:39;4.60;99.90
12053;DHT22;6087;48.982;12.064;2023-03-13T04:27:06;4.60;99.90
12053;DHT22;6087;48.982;12.064;2023-03-13T04:29:33;4.60;99.90
12053;DHT22;6087;48.982;12.064;2023-03-13T04:32:00;4.70;99.90
12053;DHT22;6087;48.982;12.064;2023-03-13T04:34:27;4.70;99.90
12053;DHT22;6087;48.982;12.064;2023-03-13T04:36:55;4.70;99.90
12053;DHT22;6087;48.982;12.064;2023-03-13T04:39:22;4.70;99.90
12053;DHT22;6087;48.982;12.064;2023-03-13T04:41:51;4.70;99.90
12053;DHT22;6087;48.982;12.064;2023-03-13T04:44:19;4.70;99.90
12053;DHT22;6087;48.982;12.064;2023-03-13T04:46:46;4.70;99.90
12053;DHT22;6087;48.982;12.064;2023-03-13T04:49:13;4.70;99.90
12053;DHT22;6087;48.982;12.064;2023-03-13T04:51:41;4.60;99.90
12053;DHT22;6087;48.982;12.064;2023-03-13T04:54:08;4.60;99.90
12053;DHT22;6087;48.982;12.064;2023-03-13T04:56:35;4.60;99.90
12053;DHT22;6087;48.982;12.064;2023-03-13T04:59:04;4.60;99.90
12053;DHT22;6087;48.982;12.064;2023-03-13T05:01:31;4.60;99.90
12053;DHT22;6087;48.982;12.064;2023-03-13T05:03:58;4.60;99.90
12053;DHT22;6087;48.982;12.064;2023-03-13T05:06:25;4.60;99.90
12053;DHT22;6087;48.982;12.064;2023-03-13T05:08:52;4.60;99.90
12053;DHT22;6087;48.982;12.064;2023-03-13T05:11:19;4.60;99.90
12053;DHT22;6087;48.982;12.064;2023-03-13T05:13:46;4.60;99.90
12053;DHT22;6087;48.982;12.064;2023-03-13T05:16:14;4.60;99.90
12053;DHT22;6087;48.982;12.064;2023-03-13T05:18:41;4.60;99.90
12053;DHT22;6087;48.982;12.064;2023-03-13T05:21:08;4.60;99.90
12053;DHT22;6087;48.982;12.064;2023-03-13T05:23:35;4.60;99.90
12053;DHT22;6087;48.982;12.064;2023-03-13T05:26:03;4.60;99.90
12053;DHT22;6087;48.982;12.064;2023-03-13T05:28:29;4.60;99.90
12053;DHT22;6087;48.982;12.064;2023-03-13T05:30:56;4.60;99.90
12053;DHT22;6087;48.982;12.064;2023-03-13T05:33:25;4.50;99.90
12053;DHT22;6087;48.982;12.064;2023-03-13T05:35:52;4.50;99.90
12053;DHT22;6087;48.982;12.064;2023-03-13T05:38:19;4.50;99.90
12053;DHT22;6087;48.982;12.064;2023-03-13T05:40:46;4.50;99.90
12053;DHT22;6087;48.982;12.064;2023-03-13T05:43:13;4.50;99.90
12053;DHT22;6087;48.982;12.064;2023-03-13T05:45:40;4.50;99.90
12053;DHT22;6087;48.982;12.064;2023-03-13T05:48:07;4.50;99.90
12053;DHT22;6087;48.982;12.064;2023-03-13T05:50:35;4.50;99.90
12053;DHT22;6087;48.982;12.064;2023-03-13T05:53:02;4.60;99.90
12053;DHT22;6087;48.982;12.064;2023-03-13T05:55:29;4.60;99.90
12053;DHT22;6087;48.982;12.064;2023-03-13T05:57:56;4.60;99.90
12053;DHT22;6087;48.982;12.064;2023-03-13T06:00:24;4.60;99.90
12053;DHT22;6087;48.982;12.064;2023-03-13T06:02:51;4.60;99.90
12053;DHT22;6087;48.982;12.064;2023-03-13T06:05:17;4.60;99.90
12053;DHT22;6087;48.982;12.064;2023-03-13T06:07:48;4.60;99.90
12053;DHT22;6087;48.982;12.064;2023-03-13T06:10:15;4.70;99.90
12053;DHT22;6087;48.982;12.064;2023-03-13T06:12:42;4.70;99.90
12053;DHT22;6087;48.982;12.064;2023-03-13T06:15:10;4.60;99.90
12053;DHT22;6087;48.982;12.064;2023-03-13T06:17:37;4.60;99.90
12053;DHT22;6087;48.982;12.064;2023-03-13T06:20:05;4.70;99.90
12053;DHT22;6087;48.982;12.064;2023-03-13T06:22:32;4.70;99.90
12053;DHT22;6087;48.982;12.064;2023-03-13T06:25:01;4.70;99.90
12053;DHT22;6087;48.982;12.064;2023-03-13T06:27:28;4.70;99.90
12053;DHT22;6087;48.982;12.064;2023-03-13T06:29:55;4.70;99.90
12053;DHT22;6087;48.982;12.064;2023-03-13T06:32:22;4.70;99.90
12053;DHT22;6087;48.982;12.064;2023-03-13T06:34:49;4.70;99.90
12053;DHT22;6087;48.982;12.064;2023-03-13T06:37:17;4.80;99.90
12053;DHT22;6087;48.982;12.064;2023-03-13T06:39:44;4.80;99.90
12053;DHT22;6087;48.982;12.064;2023-03-13T06:42:13;4.80;99.90
12053;DHT22;6087;48.982;12.064;2023-03-13T06:44:40;4.80;99.90
12053;DHT22;6087;48.982;12.064;2023-03-13T06:47:07;4.80;99.90
12053;DHT22;6087;48.982;12.064;2023-03-13T06:49:34;4.80;99.90
12053;DHT22;6087;48.982;12.064;2023-03-13T06:52:01;4.80;99.90
12053;DHT22;6087;48.982;12.064;2023-03-13T06:54:28;4.80;99.90
12053;DHT22;6087;48.982;12.064;2023-03-13T06:56:55;4.80;99.90
12053;DHT22;6087;48.982;12.064;2023-03-13T06:59:26;4.80;99.90
12053;DHT22;6087;48.982;12.064;2023-03-13T07:01:53;4.80;99.90
12053;DHT22;6087;48.982;12.064;2023-03-13T07:04:20;4.80;99.90
12053;DHT22;6087;48.982;12.064;2023-03-13T07:06:47;4.90;99.90
12053;DHT22;6087;48.982;12.064;2023-03-13T07:09:14;4.80;99.90
12053;DHT22;6087;48.982;12.064;2023-03-13T07:11:44;4.90;99.90
12053;DHT22;6087;48.982;12.064;2023-03-13T07:14:12;4.90;99.90
12053;DHT22;6087;48.982;12.064;2023-03-13T07:16:40;4.90;99.90
12053;DHT22;6087;48.982;12.064;2023-03-13T07:19:07;5.00;99.90
12053;DHT22;6087;48.982;12.064;2023-03-13T07:21:34;5.00;99.90
12053;DHT22;6087;48.982;12.064;2023-03-13T07:24:01;5.00;99.90
12053;DHT22;6087;48.982;12.064;2023-03-13T07:26:28;5.00;99.90
12053;DHT22;6087;48.982;12.064;2023-03-13T07:28:56;5.00;99.90
12053;DHT22;6087;48.982;12.064;2023-03-13T07:31:23;5.00;99.90
12053;DHT22;6087;48.982;12.064;2023-03-13T07:33:53;5.10;99.90
12053;DHT22;6087;48.982;12.064;2023-03-13T07:36:21;5.10;99.90
12053;DHT22;6087;48.982;12.064;2023-03-13T07:38:48;5.10;99.90
12053;DHT22;6087;48.982;12.064;2023-03-13T07:41:15;5.10;99.90
12053;DHT22;6087;48.982;12.064;2023-03-13T07:43:43;5.20;99.90
12053;DHT22;6087;48.982;12.064;2023-03-13T07:46:13;5.20;99.90
12053;DHT22;6087;48.982;12.064;2023-03-13T07:48:41;5.20;99.90
12053;DHT22;6087;48.982;12.064;2023-03-13T07:51:13;5.20;99.90
12053;DHT22;6087;48.982;12.064;2023-03-13T07:53:41;5.20;99.90
12053;DHT22;6087;48.982;12.064;2023-03-13T07:56:10;5.20;99.90
12053;DHT22;6087;48.982;12.064;2023-03-13T07:58:39;5.20;99.90
12053;DHT22;6087;48.982;12.064;2023-03-13T08:01:10;5.30;99.90
12053;DHT22;6087;48.982;12.064;2023-03-13T08:03:37;5.30;99.90
12053;DHT22;6087;48.982;12.064;2023-03-13T08:06:07;5.40;99.90
12053;DHT22;6087;48.982;12.064;2023-03-13T08:08:36;5.40;99.90
12053;DHT22;6087;48.982;12.064;2023-03-13T08:11:05;5.40;99.90
12053;DHT22;6087;48.982;12.064;2023-03-13T08:13:32;5.50;99.90
12053;DHT22;6087;48.982;12.064;2023-03-13T08:16:04;5.50;99.90
12053;DHT22;6087;48.982;12.064;2023-03-13T08:18:32;5.50;99.90
12053;DHT22;6087;48.982;12.064;2023-03-13T08:21:01;5.60;99.90
12053;DHT22;6087;48.982;12.064;2023-03-13T08:23:28;5.60;99.90
12053;DHT22;6087;48.982;12.064;2023-03-13T08:26:01;5.60;99.90
12053;DHT22;6087;48.982;12.064;2023-03-13T08:28:28;5.60;99.90
12053;DHT22;6087;48.982;12.064;2023-03-13T08:30:55;5.70;99.90
12053;DHT22;6087;48.982;12.064;2023-03-13T08:33:22;5.70;99.90
12053;DHT22;6087;48.982;12.064;2023-03-13T08:35:49;5.70;99.90
12053;DHT22;6087;48.982;12.064;2023-03-13T08:38:16;5.70;99.90
12053;DHT22;6087;48.982;12.064;2023-03-13T08:40:43;5.70;99.90
12053;DHT22;6087;48.982;12.064;2023-03-13T08:43:12;5.80;99.90
12053;DHT22;6087;48.982;12.064;2023-03-13T08:45:39;5.90;99.90
12053;DHT22;6087;48.982;12.064;2023-03-13T08:48:06;5.90;99.90
12053;DHT22;6087;48.982;12.064;2023-03-13T08:50:33;6.00;99.90
12053;DHT22;6087;48.982;12.064;2023-03-13T08:53:00;6.10;99.90
12053;DHT22;6087;48.982;12.064;2023-03-13T08:55:27;6.10;99.90
12053;DHT22;6087;48.982;12.064;2023-03-13T08:57:54;6.20;99.90
12053;DHT22;6087;48.982;12.064;2023-03-13T09:00:23;6.30;99.90
12053;DHT22;6087;48.982;12.064;2023-03-13T09:02:50;6.40;99.90
12053;DHT22;6087;48.982;12.064;2023-03-13T09:05:17;6.50;99.90
12053;DHT22;6087;48.982;12.064;2023-03-13T09:07:47;6.50;99.90
12053;DHT22;6087;48.982;12.064;2023-03-13T09:10:15;6.60;99.90
12053;DHT22;6087;48.982;12.064;2023-03-13T09:12:44;6.70;99.90
12053;DHT22;6087;48.982;12.064;2023-03-13T09:15:12;6.80;99.90
12053;DHT22;6087;48.982;12.064;2023-03-13T09:17:43;6.90;99.90
12053;DHT22;6087;48.982;12.064;2023-03-13T09:20:10;6.90;99.90
12053;DHT22;6087;48.982;12.064;2023-03-13T09:22:37;7.00;99.90
12053;DHT22;6087;48.982;12.064;2023-03-13T09:25:05;7.00;99.90
12053;DHT22;6087;48.982;12.064;2023-03-13T09:27:32;7.10;99.90
12053;DHT22;6087;48.982;12.064;2023-03-13T09:29:59;7.10;99.90
12053;DHT22;6087;48.982;12.064;2023-03-13T09:32:26;7.20;99.90
12053;DHT22;6087;48.982;12.064;2023-03-13T09:34:55;7.20;99.90
12053;DHT22;6087;48.982;12.064;2023-03-13T09:37:22;7.20;99.90
12053;DHT22;6087;48.982;12.064;2023-03-13T09:39:49;7.20;99.90
12053;DHT22;6087;48.982;12.064;2023-03-13T09:42:17;7.30;99.90
12053;DHT22;6087;48.982;12.064;2023-03-13T09:44:51;7.30;99.90
12053;DHT22;6087;48.982;12.064;2023-03-13T09:47:24;7.30;99.90
12053;DHT22;6087;48.982;12.064;2023-03-13T09:49:56;7.30;99.90
12053;DHT22;6087;48.982;12.064;2023-03-13T09:52:27;7.30;99.90
12053;DHT22;6087;48.982;12.064;2023-03-13T09:54:58;7.30;99.90
12053;DHT22;6087;48.982;12.064;2023-03-13T09:57:32;7.30;99.90
12053;DHT22;6087;48.982;12.064;2023-03-13T10:00:02;7.30;99.90
12053;DHT22;6087;48.982;12.064;2023-03-13T10:02:34;7.40;99.90
12053;DHT22;6087;48.982;12.064;2023-03-13T10:05:09;7.40;99.90
12053;DHT22;6087;48.982;12.064;2023-03-13T10:07:38;7.40;99.90
12053;DHT22;6087;48.982;12.064;2023-03-13T10:10:11;7.40;99.90
12053;DHT22;6087;48.982;12.064;2023-03-13T10:12:44;7.40;99.90
12053;DHT22;6087;48.982;12.064;2023-03-13T10:15:27;7.40;99.90
12053;DHT22;6087;48.982;12.064;2023-03-13T10:17:57;7.50;99.90
12053;DHT22;6087;48.982;12.064;2023-03-13T10:20:28;7.50;99.90
12053;DHT22;6087;48.982;12.064;2023-03-13T10:22:58;7.50;99.90
12053;DHT22;6087;48.982;12.064;2023-03-13T10:25:29;7.50;99.90
12053;DHT22;6087;48.982;12.064;2023-03-13T10:27:56;7.60;99.90
12053;DHT22;6087;48.982;12.064;2023-03-13T10:30:25;7.60;99.90
12053;DHT22;6087;48.982;12.064;2023-03-13T10:32:59;7.70;99.90
12053;DHT22;6087;48.982;12.064;2023-03-13T10:35:34;7.70;99.90
12053;DHT22;6087;48.982;12.064;2023-03-13T10:38:04;7.80;99.90
12053;DHT22;6087;48.982;12.064;2023-03-13T10:40:31;7.90;99.90
12053;DHT22;6087;48.982;12.064;2023-03-13T10:43:04;8.00;99.90
12053;DHT22;6087;48.982;12.064;2023-03-13T10:45:34;8.10;99.90
12053;DHT22;6087;48.982;12.064;2023-03-13T10:48:09;8.20;99.90
12053;DHT22;6087;48.982;12.064;2023-03-13T10:50:42;8.30;99.90
12053;DHT22;6087;48.982;12.064;2023-03-13T10:53:25;8.40;99.90
12053;DHT22;6087;48.982;12.064;2023-03-13T10:56:04;8.40;99.90
12053;DHT22;6087;48.982;12.064;2023-03-13T10:58:42;8.50;99.90
12053;DHT22;6087;48.982;12.064;2023-03-13T11:01:29;8.60;99.90
12053;DHT22;6087;48.982;12.064;2023-03-13T11:04:32;8.70;99.90
12053;DHT22;6087;48.982;12.064;2023-03-13T11:07:14;8.80;99.90
12053;DHT22;6087;48.982;12.064;2023-03-13T11:09:59;8.90;99.90
12053;DHT22;6087;48.982;12.064;2023-03-13T11:12:27;9.00;99.90
12053;DHT22;6087;48.982;12.064;2023-03-13T11:14:57;9.10;99.90
12053;DHT22;6087;48.982;12.064;2023-03-13T11:17:33;9.20;99.90
12053;DHT22;6087;48.982;12.064;2023-03-13T11:20:13;9.40;99.90
12053;DHT22;6087;48.982;12.064;2023-03-13T11:23:09;9.50;99.90
12053;DHT22;6087;48.982;12.064;2023-03-13T11:25:44;9.70;99.90
12053;DHT22;6087;48.982;12.064;2023-03-13T11:28:27;9.90;99.90
12053;DHT22;6087;48.982;12.064;2023-03-13T11:31:12;10.10;99.90
12053;DHT22;6087;48.982;12.064;2023-03-13T11:33:47;10.10;99.90
12053;DHT22;6087;48.982;12.064;2023-03-13T11:36:25;10.10;99.90
12053;DHT22;6087;48.982;12.064;2023-03-13T11:39:06;10.10;99.90
12053;DHT22;6087;48.982;12.064;2023-03-13T11:41:50;10.10;99.90
12053;DHT22;6087;48.982;12.064;2023-03-13T11:44:33;10.20;99.90
12053;DHT22;6087;48.982;12.064;2023-03-13T11:47:27;10.20;99.90
12053;DHT22;6087;48.982;12.064;2023-03-13T11:55:58;10.30;99.90
12053;DHT22;6087;48.982;12.064;2023-03-13T12:01:27;10.20;99.90
12053;DHT22;6087;48.982;12.064;2023-03-13T12:04:12;10.20;99.90
12053;DHT22;6087;48.982;12.064;2023-03-13T12:06:45;10.10;99.90
12053;DHT22;6087;48.982;12.064;2023-03-13T12:09:20;10.10;99.90
12053;DHT22;6087;48.982;12.064;2023-03-13T12:12:14;10.10;99.90
12053;DHT22;6087;48.982;12.064;2023-03-13T12:14:49;10.10;99.90
12053;DHT22;6087;48.982;12.064;2023-03-13T12:17:30;10.10;99.90
12053;DHT22;6087;48.982;12.064;2023-03-13T12:20:07;10.10;99.90
12053;DHT22;6087;48.982;12.064;2023-03-13T12:22:43;10.10;99.90
12053;DHT22;6087;48.982;12.064;2023-03-13T12:25:20;10.10;99.90
12053;DHT22;6087;48.982;12.064;2023-03-13T12:28:18;10.10;99.90
12053;DHT22;6087;48.982;12.064;2023-03-13T12:31:27;10.20;99.90
12053;DHT22;6087;48.982;12.064;2023-03-13T12:34:14;10.30;99.90
12053;DHT22;6087;48.982;12.064;2023-03-13T12:36:48;10.80;99.90
12053;DHT22;6087;48.982;12.064;2023-03-13T12:39:38;11.00;99.90
12053;DHT22;6087;48.982;12.064;2023-03-13T12:42:16;11.30;99.90
12053;DHT22;6087;48.982;12.064;2023-03-13T12:44:47;11.30;99.90
12053;DHT22;6087;48.982;12.064;2023-03-13T12:47:17;11.70;99.90
12053;DHT22;6087;48.982;12.064;2023-03-13T12:53:01;12.60;63.20
12053;DHT22;6087;48.982;12.064;2023-03-13T12:58:44;14.10;9.70
12053;DHT22;6087;48.982;12.064;2023-03-13T13:01:24;14.60;1.00
12053;DHT22;6087;48.982;12.064;2023-03-13T13:03:56;15.90;1.00
12053;DHT22;6087;48.982;12.064;2023-03-13T13:06:24;16.80;1.00
12053;DHT22;6087;48.982;12.064;2023-03-13T13:09:05;17.00;1.00
12053;DHT22;6087;48.982;12.064;2023-03-13T13:11:54;16.90;44.20
12053;DHT22;6087;48.982;12.064;2023-03-13T13:15:00;16.60;99.90
12053;DHT22;6087;48.982;12.064;2023-03-13T13:17:47;16.50;1.00
12053;DHT22;6087;48.982;12.064;2023-03-13T13:20:27;16.00;1.00
12053;DHT22;6087;48.982;12.064;2023-03-13T13:22:55;15.50;99.90
12053;DHT22;6087;48.982;12.064;2023-03-13T13:25:31;15.10;1.00
12053;DHT22;6087;48.982;12.064;2023-03-13T13:28:32;14.80;1.00
12053;DHT22;6087;48.982;12.064;2023-03-13T13:31:00;14.70;1.00
12053;DHT22;6087;48.982;12.064;2023-03-13T13:33:36;14.50;1.00
12053;DHT22;6087;48.982;12.064;2023-03-13T13:36:40;15.60;1.00
12053;DHT22;6087;48.982;12.064;2023-03-13T13:39:34;16.80;48.00
12053;DHT22;6087;48.982;12.064;2023-03-13T13:42:37;17.40;50.90
12053;DHT22;6087;48.982;12.064;2023-03-13T13:45:29;18.00;1.00
12053;DHT22;6087;48.982;12.064;2023-03-13T13:48:26;17.80;99.90
12053;DHT22;6087;48.982;12.064;2023-03-13T13:54:01;17.70;1.00
12053;DHT22;6087;48.982;12.064;2023-03-13T13:56:42;19.00;99.90
12053;DHT22;6087;48.982;12.064;2023-03-13T13:59:43;20.60;99.90
12053;DHT22;6087;48.982;12.064;2023-03-13T14:02:14;22.40;1.00
12053;DHT22;6087;48.982;12.064;2023-03-13T14:04:45;23.30;99.90
12053;DHT22;6087;48.982;12.064;2023-03-13T14:07:17;24.40;1.00
12053;DHT22;6087;48.982;12.064;2023-03-13T14:09:52;24.70;1.00
12053;DHT22;6087;48.982;12.064;2023-03-13T14:12:29;24.50;99.90
12053;DHT22;6087;48.982;12.064;2023-03-13T14:15:09;25.00;99.90
12053;DHT22;6087;48.982;12.064;2023-03-13T14:17:39;23.90;99.90
12053;DHT22;6087;48.982;12.064;2023-03-13T14:20:20;23.00;99.90
12053;DHT22;6087;48.982;12.064;2023-03-13T14:22:49;22.60;99.90
12053;DHT22;6087;48.982;12.064;2023-03-13T14:25:19;23.00;1.00
12053;DHT22;6087;48.982;12.064;2023-03-13T14:27:48;23.30;1.00
12053;DHT22;6087;48.982;12.064;2023-03-13T14:30:16;23.30;1.00
12053;DHT22;6087;48.982;12.064;2023-03-13T14:36:06;23.10;99.90
12053;DHT22;6087;48.982;12.064;2023-03-13T14:38:34;23.20;1.00
12053;DHT22;6087;48.982;12.064;2023-03-13T14:41:02;23.10;1.00
12053;DHT22;6087;48.982;12.064;2023-03-13T14:43:32;22.50;99.90
12053;DHT22;6087;48.982;12.064;2023-03-13T14:46:12;22.00;99.90
12053;DHT22;6087;48.982;12.064;2023-03-13T14:48:40;21.30;1.00
12053;DHT22;6087;48.982;12.064;2023-03-13T14:51:09;20.80;1.00
12053;DHT22;6087;48.982;12.064;2023-03-13T14:53:36;20.50;1.00
12053;DHT22;6087;48.982;12.064;2023-03-13T14:56:17;20.40;32.30
12053;DHT22;6087;48.982;12.064;2023-03-13T14:58:47;20.50;99.90
12053;DHT22;6087;48.982;12.064;2023-03-13T15:01:24;20.80;99.90
12053;DHT22;6087;48.982;12.064;2023-03-13T15:03:51;21.40;1.00
12053;DHT22;6087;48.982;12.064;2023-03-13T15:06:20;22.00;1.00
12053;DHT22;6087;48.982;12.064;2023-03-13T15:09:15;22.10;1.00
12053;DHT22;6087;48.982;12.064;2023-03-13T15:11:55;21.70;1.00
12053;DHT22;6087;48.982;12.064;2023-03-13T15:14:44;21.40;1.00
12053;DHT22;6087;48.982;12.064;2023-03-13T15:17:24;20.80;1.00
12053;DHT22;6087;48.982;12.064;2023-03-13T15:20:17;20.50;99.90
12053;DHT22;6087;48.982;12.064;2023-03-13T15:22:45;20.10;99.90
12053;DHT22;6087;48.982;12.064;2023-03-13T15:25:15;19.60;1.00
12053;DHT22;6087;48.982;12.064;2023-03-13T15:27:49;19.30;1.00
12053;DHT22;6087;48.982;12.064;2023-03-13T15:30:41;18.70;1.00
12053;DHT22;6087;48.982;12.064;2023-03-13T15:33:21;18.10;1.00
12053;DHT22;6087;48.982;12.064;2023-03-13T15:35:58;17.70;1.00
12053;DHT22;6087;48.982;12.064;2023-03-13T15:38:30;17.40;99.90
12053;DHT22;6087;48.982;12.064;2023-03-13T15:40:57;17.50;1.00
12053;DHT22;6087;48.982;12.064;2023-03-13T15:43:28;17.60;1.00
12053;DHT22;6087;48.982;12.064;2023-03-13T15:45:55;17.30;1.00
12053;DHT22;6087;48.982;12.064;2023-03-13T15:48:25;17.00;99.90
12053;DHT22;6087;48.982;12.064;2023-03-13T15:50:55;16.70;99.90
12053;DHT22;6087;48.982;12.064;2023-03-13T15:53:25;16.40;1.00
12053;DHT22;6087;48.982;12.064;2023-03-13T15:55:53;16.20;1.00
12053;DHT22;6087;48.982;12.064;2023-03-13T15:58:21;16.00;1.00
12053;DHT22;6087;48.982;12.064;2023-03-13T16:00:51;15.90;1.00
12053;DHT22;6087;48.982;12.064;2023-03-13T16:03:19;15.80;1.00
12053;DHT22;6087;48.982;12.064;2023-03-13T16:05:47;15.60;1.00
12053;DHT22;6087;48.982;12.064;2023-03-13T16:08:18;15.40;1.00
12053;DHT22;6087;48.982;12.064;2023-03-13T16:10:45;15.20;1.00
12053;DHT22;6087;48.982;12.064;2023-03-13T16:13:13;15.10;1.00
12053;DHT22;6087;48.982;12.064;2023-03-13T16:15:40;14.90;1.00
12053;DHT22;6087;48.982;12.064;2023-03-13T16:18:14;14.70;1.00
12053;DHT22;6087;48.982;12.064;2023-03-13T16:20:44;14.60;99.90
12053;DHT22;6087;48.982;12.064;2023-03-13T16:23:14;14.50;1.00
12053;DHT22;6087;48.982;12.064;2023-03-13T16:25:53;14.30;99.90
12053;DHT22;6087;48.982;12.064;2023-03-13T16:28:20;14.20;11.80
12053;DHT22;6087;48.982;12.064;2023-03-13T16:30:50;14.10;57.60
12053;DHT22;6087;48.982;12.064;2023-03-13T16:33:22;14.00;99.90